Información del aeropuerto GCRR

Información de pista
Pista 03 Longitud 7874 ft Anchura 148 ft
Elevación 18 ft Umbral ft Rumbo 27
Pista 21 Longitud 7874 ft Anchura 148 ft
Elevación 47 ft Umbral ft Rumbo 207
Frecuencias del aeropuerto
Tipo APP Nombre CANARIAS A Frecuencia 129.3 MHZ
Tipo ATIS Nombre ATIS Frecuencia 118.625 MHZ
Tipo GND Nombre GND Frecuencia 121.8 MHZ
Tipo TWR Nombre TWR Frecuencia 120.7 MHZ
Radioayudas del aeropuerto
Tipo VOR-DME Nombre Lanzarote Frecuencia 113700 KHZ
Tipo NDB Nombre Lanzarote Frecuencia 310 KHZ
Tipo VOR-DME Nombre Lanzarote Frecuencia 115200 KHZ
Tipo TACAN Nombre Lanzarote Frecuencia 114700 KHZ
Información meteorológica del aeropuerto y NOTAM
ADDS - METARS form results

(0954 UTC 08 December 2022)
Data provider http://aviationweather.gov/metar/data/
 
METAR text: GCRR 080930Z 22004KT 9999 FEW012 BKN045 21/20 Q1010
Conditions at: GCRR (ARRECIFE/LANZARO, ES) observed 0930 UTC 08 December 2022
Temperature: 21.0°C (70°F)
Dewpoint: 20.0°C (68°F) [RH = 94%]
Pressure (altimeter): 29.82 inches Hg (1010.0 mb)
Winds: from the SW (220 degrees) at 5 MPH (4 knots; 2.1 m/s)
Visibility: 6 or more miles (10+ km)
Ceiling: 4500 feet AGL
Clouds: few clouds at 1200 feet AGL
broken clouds at 4500 feet AGL
Weather: no significant weather observed at this time

METAR text: GCRR 080900Z 25004KT 9999 FEW012 SCT045 21/20 Q1010
Conditions at: GCRR (ARRECIFE/LANZARO, ES) observed 0900 UTC 08 December 2022
Temperature: 21.0°C (70°F)
Dewpoint: 20.0°C (68°F) [RH = 94%]
Pressure (altimeter): 29.82 inches Hg (1010.0 mb)
Winds: from the WSW (250 degrees) at 5 MPH (4 knots; 2.1 m/s)
Visibility: 6 or more miles (10+ km)
Ceiling: at least 12,000 feet AGL
Clouds: few clouds at 1200 feet AGL
scattered clouds at 4500 feet AGL
Weather: no significant weather observed at this time

Forecast for: GCRR (ARRECIFE/LANZARO, ES)
Text: TAF GCRR 080800Z 0809/0909 25009KT 9999 SCT020 TX23/0814Z TN17/0906Z
Forecast period: 0900 UTC 08 December 2022 to 0900 UTC 09 December 2022
Forecast type: FROM: standard forecast or significant change
Winds: from the WSW (250 degrees) at 10 MPH (9 knots; 4.6 m/s)
Visibility: 6 or more miles (10+ km)
Ceiling: at least 12,000 feet AGL
Clouds: scattered clouds at 2000 feet AGL
Weather: no significant weather forecast for this period
Text: PROB30
Forecast period: 0900 to 1200 UTC 08 December 2022
Forecast type: TEMPORARY: The following changes expected for less than half the time period
Visibility: missing
Ceiling: 1400 feet AGL
Clouds: broken clouds at 1400 feet AGL
Weather: no significant weather forecast for this period